sensor_id;sensor_type;location;lat;lon;timestamp;pressure;altitude;pressure_sealevel;temperature;humidity
3102;BME280;1561;42.666;23.392;2024-01-25T00:01:35;95762.19;;;4.35;100.00
3102;BME280;1561;42.666;23.392;2024-01-25T00:04:18;95786.19;;;4.45;100.00
3102;BME280;1561;42.666;23.392;2024-01-25T00:06:47;95779.03;;;4.36;100.00
3102;BME280;1561;42.666;23.392;2024-01-25T00:09:14;95768.41;;;4.29;100.00
3102;BME280;1561;42.666;23.392;2024-01-25T00:11:43;95768.22;;;4.32;100.00
3102;BME280;1561;42.666;23.392;2024-01-25T00:14:14;95739.25;;;4.04;100.00
3102;BME280;1561;42.666;23.392;2024-01-25T00:16:41;95704.84;;;4.01;100.00
3102;BME280;1561;42.666;23.392;2024-01-25T00:19:10;95681.00;;;4.07;100.00
3102;BME280;1561;42.666;23.392;2024-01-25T00:21:44;95644.41;;;3.80;100.00
3102;BME280;1561;42.666;23.392;2024-01-25T00:24:15;95499.09;;;3.22;100.00
3102;BME280;1561;42.666;23.392;2024-01-25T00:26:42;95679.81;;;4.14;100.00
3102;BME280;1561;42.666;23.392;2024-01-25T00:29:10;95688.28;;;4.30;100.00
3102;BME280;1561;42.666;23.392;2024-01-25T00:31:37;95681.91;;;4.23;100.00
3102;BME280;1561;42.666;23.392;2024-01-25T00:34:09;95670.06;;;4.23;100.00
3102;BME280;1561;42.666;23.392;2024-01-25T00:36:37;95682.25;;;4.49;100.00
3102;BME280;1561;42.666;23.392;2024-01-25T00:39:06;95672.91;;;4.34;100.00
3102;BME280;1561;42.666;23.392;2024-01-25T00:41:35;95657.34;;;4.25;100.00
3102;BME280;1561;42.666;23.392;2024-01-25T00:44:03;95653.78;;;4.12;100.00
3102;BME280;1561;42.666;23.392;2024-01-25T00:46:32;95640.41;;;4.10;100.00
3102;BME280;1561;42.666;23.392;2024-01-25T00:49:02;95644.72;;;4.08;100.00
3102;BME280;1561;42.666;23.392;2024-01-25T00:51:32;95654.97;;;4.22;100.00
3102;BME280;1561;42.666;23.392;2024-01-25T00:54:00;95654.31;;;4.18;100.00
3102;BME280;1561;42.666;23.392;2024-01-25T00:56:35;95652.81;;;4.14;100.00
3102;BME280;1561;42.666;23.392;2024-01-25T00:59:04;95674.66;;;4.49;100.00
3102;BME280;1561;42.666;23.392;2024-01-25T01:01:31;95672.59;;;4.23;100.00
3102;BME280;1561;42.666;23.392;2024-01-25T01:03:59;95678.34;;;4.27;100.00
3102;BME280;1561;42.666;23.392;2024-01-25T01:06:28;95692.22;;;4.35;100.00
3102;BME280;1561;42.666;23.392;2024-01-25T01:08:57;95681.22;;;4.36;100.00
3102;BME280;1561;42.666;23.392;2024-01-25T01:11:25;95678.81;;;4.50;100.00
3102;BME280;1561;42.666;23.392;2024-01-25T01:13:54;95666.78;;;4.38;100.00
3102;BME280;1561;42.666;23.392;2024-01-25T01:16:22;95647.03;;;4.12;100.00
3102;BME280;1561;42.666;23.392;2024-01-25T01:18:50;95644.34;;;4.15;100.00
3102;BME280;1561;42.666;23.392;2024-01-25T01:21:17;95643.22;;;4.21;100.00
3102;BME280;1561;42.666;23.392;2024-01-25T01:23:47;95626.63;;;4.32;100.00
3102;BME280;1561;42.666;23.392;2024-01-25T01:26:14;95621.81;;;4.11;100.00
3102;BME280;1561;42.666;23.392;2024-01-25T01:28:43;95612.59;;;4.10;100.00
3102;BME280;1561;42.666;23.392;2024-01-25T01:31:14;95608.66;;;4.21;100.00
3102;BME280;1561;42.666;23.392;2024-01-25T01:33:46;95619.66;;;4.20;100.00
3102;BME280;1561;42.666;23.392;2024-01-25T01:36:13;95618.00;;;4.19;100.00
3102;BME280;1561;42.666;23.392;2024-01-25T01:38:40;95609.75;;;4.16;100.00
3102;BME280;1561;42.666;23.392;2024-01-25T01:41:09;95603.34;;;3.93;100.00
3102;BME280;1561;42.666;23.392;2024-01-25T01:43:37;95589.13;;;3.74;100.00
3102;BME280;1561;42.666;23.392;2024-01-25T01:46:09;95625.31;;;4.08;100.00
3102;BME280;1561;42.666;23.392;2024-01-25T01:48:41;95609.97;;;4.28;100.00
3102;BME280;1561;42.666;23.392;2024-01-25T01:51:12;95599.84;;;4.28;100.00
3102;BME280;1561;42.666;23.392;2024-01-25T01:53:40;95588.00;;;4.13;100.00
3102;BME280;1561;42.666;23.392;2024-01-25T01:56:09;95563.63;;;3.78;100.00
3102;BME280;1561;42.666;23.392;2024-01-25T01:58:38;95576.13;;;3.81;100.00
3102;BME280;1561;42.666;23.392;2024-01-25T02:01:07;95569.72;;;3.91;100.00
3102;BME280;1561;42.666;23.392;2024-01-25T02:03:35;95594.09;;;3.92;100.00
3102;BME280;1561;42.666;23.392;2024-01-25T02:06:12;95588.50;;;3.69;100.00
3102;BME280;1561;42.666;23.392;2024-01-25T02:08:42;95570.03;;;3.51;100.00
3102;BME280;1561;42.666;23.392;2024-01-25T02:11:11;95580.06;;;3.70;100.00
3102;BME280;1561;42.666;23.392;2024-01-25T02:13:41;95573.66;;;3.97;100.00
3102;BME280;1561;42.666;23.392;2024-01-25T02:16:10;95555.53;;;3.72;100.00
3102;BME280;1561;42.666;23.392;2024-01-25T02:18:40;95585.13;;;3.70;100.00
3102;BME280;1561;42.666;23.392;2024-01-25T02:21:13;95576.06;;;3.66;100.00
3102;BME280;1561;42.666;23.392;2024-01-25T02:23:44;95579.31;;;3.68;100.00
3102;BME280;1561;42.666;23.392;2024-01-25T02:26:20;95581.03;;;3.84;100.00
3102;BME280;1561;42.666;23.392;2024-01-25T02:28:49;95576.34;;;3.94;100.00
3102;BME280;1561;42.666;23.392;2024-01-25T02:31:19;95483.03;;;3.06;100.00
3102;BME280;1561;42.666;23.392;2024-01-25T02:33:49;95569.06;;;4.05;100.00
3102;BME280;1561;42.666;23.392;2024-01-25T02:36:17;95550.72;;;3.67;100.00
3102;BME280;1561;42.666;23.392;2024-01-25T02:38:50;95555.00;;;3.65;100.00
3102;BME280;1561;42.666;23.392;2024-01-25T02:41:19;95569.06;;;3.54;100.00
3102;BME280;1561;42.666;23.392;2024-01-25T02:43:47;95576.84;;;3.83;100.00
3102;BME280;1561;42.666;23.392;2024-01-25T02:46:16;95567.13;;;3.76;100.00
3102;BME280;1561;42.666;23.392;2024-01-25T02:48:46;95563.25;;;3.69;100.00
3102;BME280;1561;42.666;23.392;2024-01-25T02:51:15;95562.06;;;3.76;100.00
3102;BME280;1561;42.666;23.392;2024-01-25T02:53:42;95556.13;;;3.94;100.00
3102;BME280;1561;42.666;23.392;2024-01-25T02:56:19;95564.00;;;3.71;100.00
3102;BME280;1561;42.666;23.392;2024-01-25T02:58:46;95558.38;;;3.66;100.00
3102;BME280;1561;42.666;23.392;2024-01-25T03:01:14;95561.78;;;3.65;100.00
3102;BME280;1561;42.666;23.392;2024-01-25T03:03:45;95551.25;;;3.74;100.00
3102;BME280;1561;42.666;23.392;2024-01-25T03:06:17;95556.78;;;3.46;100.00
3102;BME280;1561;42.666;23.392;2024-01-25T03:08:45;95557.97;;;3.39;100.00
3102;BME280;1561;42.666;23.392;2024-01-25T03:11:18;95446.75;;;3.08;100.00
3102;BME280;1561;42.666;23.392;2024-01-25T03:13:48;95365.31;;;2.54;100.00
3102;BME280;1561;42.666;23.392;2024-01-25T03:16:25;95533.19;;;3.47;100.00
3102;BME280;1561;42.666;23.392;2024-01-25T03:18:54;95542.84;;;3.56;100.00
3102;BME280;1561;42.666;23.392;2024-01-25T03:21:21;95532.72;;;3.56;100.00
3102;BME280;1561;42.666;23.392;2024-01-25T03:23:49;95513.09;;;3.78;100.00
3102;BME280;1561;42.666;23.392;2024-01-25T03:26:18;95521.84;;;3.56;100.00
3102;BME280;1561;42.666;23.392;2024-01-25T03:28:45;95525.59;;;3.64;100.00
3102;BME280;1561;42.666;23.392;2024-01-25T03:31:12;95547.31;;;3.68;100.00
3102;BME280;1561;42.666;23.392;2024-01-25T03:33:40;95501.31;;;3.45;100.00
3102;BME280;1561;42.666;23.392;2024-01-25T03:36:08;95555.47;;;3.90;100.00
3102;BME280;1561;42.666;23.392;2024-01-25T03:38:37;95557.66;;;4.13;100.00
3102;BME280;1561;42.666;23.392;2024-01-25T03:41:05;95544.06;;;3.99;100.00
3102;BME280;1561;42.666;23.392;2024-01-25T03:43:35;95499.72;;;3.93;100.00
3102;BME280;1561;42.666;23.392;2024-01-25T03:46:05;95501.16;;;5.07;100.00
3102;BME280;1561;42.666;23.392;2024-01-25T03:48:33;95467.81;;;5.30;100.00
3102;BME280;1561;42.666;23.392;2024-01-25T03:51:03;95497.31;;;6.18;100.00
3102;BME280;1561;42.666;23.392;2024-01-25T03:53:32;95503.66;;;7.06;100.00
3102;BME280;1561;42.666;23.392;2024-01-25T03:56:02;95494.94;;;7.37;100.00
3102;BME280;1561;42.666;23.392;2024-01-25T03:58:29;95486.03;;;7.56;100.00
3102;BME280;1561;42.666;23.392;2024-01-25T04:00:59;95483.41;;;7.70;100.00
3102;BME280;1561;42.666;23.392;2024-01-25T04:03:26;95501.03;;;7.73;100.00
3102;BME280;1561;42.666;23.392;2024-01-25T04:05:57;95476.84;;;7.41;100.00
3102;BME280;1561;42.666;23.392;2024-01-25T04:08:34;95479.03;;;7.21;100.00
3102;BME280;1561;42.666;23.392;2024-01-25T04:11:08;95404.34;;;6.58;100.00
3102;BME280;1561;42.666;23.392;2024-01-25T04:13:42;95467.31;;;7.06;100.00
3102;BME280;1561;42.666;23.392;2024-01-25T04:16:13;95473.22;;;6.92;100.00
3102;BME280;1561;42.666;23.392;2024-01-25T04:18:41;95461.81;;;6.59;100.00
3102;BME280;1561;42.666;23.392;2024-01-25T04:21:08;95459.72;;;6.65;100.00
3102;BME280;1561;42.666;23.392;2024-01-25T04:23:36;95462.66;;;6.86;100.00
3102;BME280;1561;42.666;23.392;2024-01-25T04:26:05;95469.66;;;6.82;100.00
3102;BME280;1561;42.666;23.392;2024-01-25T04:28:38;95474.97;;;6.92;100.00
3102;BME280;1561;42.666;23.392;2024-01-25T04:31:21;95471.63;;;6.91;100.00
3102;BME280;1561;42.666;23.392;2024-01-25T04:34:12;95476.69;;;6.65;100.00
3102;BME280;1561;42.666;23.392;2024-01-25T04:36:42;95467.97;;;6.55;100.00
3102;BME280;1561;42.666;23.392;2024-01-25T04:39:12;95463.78;;;6.68;100.00
3102;BME280;1561;42.666;23.392;2024-01-25T04:41:40;95472.41;;;6.65;100.00
3102;BME280;1561;42.666;23.392;2024-01-25T04:44:08;95483.91;;;6.71;100.00
3102;BME280;1561;42.666;23.392;2024-01-25T04:46:48;95489.63;;;6.60;100.00
3102;BME280;1561;42.666;23.392;2024-01-25T04:49:19;95498.97;;;6.60;100.00
3102;BME280;1561;42.666;23.392;2024-01-25T04:51:51;95497.09;;;6.49;100.00
3102;BME280;1561;42.666;23.392;2024-01-25T04:54:26;95509.34;;;6.43;100.00
3102;BME280;1561;42.666;23.392;2024-01-25T04:56:56;95522.91;;;6.42;100.00
3102;BME280;1561;42.666;23.392;2024-01-25T04:59:25;95460.31;;;6.00;100.00
3102;BME280;1561;42.666;23.392;2024-01-25T05:01:54;95493.41;;;5.99;100.00
3102;BME280;1561;42.666;23.392;2024-01-25T05:04:25;95496.63;;;5.87;100.00
3102;BME280;1561;42.666;23.392;2024-01-25T05:06:54;95525.53;;;5.98;100.00
3102;BME280;1561;42.666;23.392;2024-01-25T05:09:27;95490.84;;;5.55;100.00
3102;BME280;1561;42.666;23.392;2024-01-25T05:11:53;95533.63;;;5.75;100.00
3102;BME280;1561;42.666;23.392;2024-01-25T05:14:24;95511.31;;;5.82;100.00
3102;BME280;1561;42.666;23.392;2024-01-25T05:16:58;95515.63;;;5.94;100.00
3102;BME280;1561;42.666;23.392;2024-01-25T05:19:27;95530.44;;;6.29;100.00
3102;BME280;1561;42.666;23.392;2024-01-25T05:21:55;95500.44;;;5.94;100.00
3102;BME280;1561;42.666;23.392;2024-01-25T05:24:24;95557.81;;;6.38;100.00
3102;BME280;1561;42.666;23.392;2024-01-25T05:26:51;95553.34;;;6.42;100.00
3102;BME280;1561;42.666;23.392;2024-01-25T05:29:24;95553.91;;;6.47;100.00
3102;BME280;1561;42.666;23.392;2024-01-25T05:34:55;95536.94;;;6.75;100.00
3102;BME280;1561;42.666;23.392;2024-01-25T05:37:25;95563.13;;;6.90;100.00
3102;BME280;1561;42.666;23.392;2024-01-25T05:39:56;95561.09;;;6.95;100.00
3102;BME280;1561;42.666;23.392;2024-01-25T05:42:25;95564.28;;;6.98;100.00
3102;BME280;1561;42.666;23.392;2024-01-25T05:44:55;95567.19;;;6.92;100.00
3102;BME280;1561;42.666;23.392;2024-01-25T05:47:37;95561.75;;;6.98;100.00
3102;BME280;1561;42.666;23.392;2024-01-25T05:50:09;95577.66;;;7.14;100.00
3102;BME280;1561;42.666;23.392;2024-01-25T05:52:44;95582.31;;;7.08;100.00
3102;BME280;1561;42.666;23.392;2024-01-25T05:55:15;95592.84;;;7.02;100.00
3102;BME280;1561;42.666;23.392;2024-01-25T05:57:48;95554.41;;;6.94;100.00
3102;BME280;1561;42.666;23.392;2024-01-25T06:00:16;95576.00;;;7.27;100.00
3102;BME280;1561;42.666;23.392;2024-01-25T06:02:47;95582.66;;;7.16;100.00
3102;BME280;1561;42.666;23.392;2024-01-25T06:05:20;95586.50;;;7.09;100.00
3102;BME280;1561;42.666;23.392;2024-01-25T06:07:49;95590.81;;;7.21;100.00
3102;BME280;1561;42.666;23.392;2024-01-25T06:10:17;95589.91;;;7.22;100.00
3102;BME280;1561;42.666;23.392;2024-01-25T06:12:46;95599.28;;;7.07;100.00
3102;BME280;1561;42.666;23.392;2024-01-25T06:15:16;95592.91;;;7.14;100.00
3102;BME280;1561;42.666;23.392;2024-01-25T06:17:43;95569.72;;;6.92;100.00
3102;BME280;1561;42.666;23.392;2024-01-25T06:20:11;95598.81;;;7.15;100.00
3102;BME280;1561;42.666;23.392;2024-01-25T06:22:43;95603.91;;;7.15;100.00
3102;BME280;1561;42.666;23.392;2024-01-25T06:25:12;95596.44;;;7.12;100.00
3102;BME280;1561;42.666;23.392;2024-01-25T06:27:39;95597.28;;;7.12;100.00
3102;BME280;1561;42.666;23.392;2024-01-25T06:30:07;95604.16;;;7.10;100.00
3102;BME280;1561;42.666;23.392;2024-01-25T06:32:37;95588.59;;;7.02;100.00
3102;BME280;1561;42.666;23.392;2024-01-25T06:35:05;95592.66;;;7.19;100.00
3102;BME280;1561;42.666;23.392;2024-01-25T06:37:32;95596.81;;;7.20;100.00
3102;BME280;1561;42.666;23.392;2024-01-25T06:40:01;95599.53;;;7.17;100.00
3102;BME280;1561;42.666;23.392;2024-01-25T06:42:31;95596.09;;;7.18;100.00
3102;BME280;1561;42.666;23.392;2024-01-25T06:44:59;95593.75;;;7.15;100.00
3102;BME280;1561;42.666;23.392;2024-01-25T06:47:27;95574.34;;;7.00;100.00
3102;BME280;1561;42.666;23.392;2024-01-25T06:49:55;95574.50;;;7.11;100.00
3102;BME280;1561;42.666;23.392;2024-01-25T06:52:23;95566.41;;;7.18;100.00
3102;BME280;1561;42.666;23.392;2024-01-25T06:54:51;95523.03;;;7.21;100.00
3102;BME280;1561;42.666;23.392;2024-01-25T06:57:23;95533.47;;;7.43;100.00
3102;BME280;1561;42.666;23.392;2024-01-25T06:59:51;95540.63;;;7.63;100.00
3102;BME280;1561;42.666;23.392;2024-01-25T07:02:20;95523.16;;;7.71;100.00
3102;BME280;1561;42.666;23.392;2024-01-25T07:04:47;95539.34;;;7.70;100.00
3102;BME280;1561;42.666;23.392;2024-01-25T07:07:18;95539.34;;;7.70;100.00
3102;BME280;1561;42.666;23.392;2024-01-25T07:09:49;95560.38;;;7.72;100.00
3102;BME280;1561;42.666;23.392;2024-01-25T07:12:19;95487.66;;;7.57;100.00
3102;BME280;1561;42.666;23.392;2024-01-25T07:14:57;95568.41;;;7.93;100.00
3102;BME280;1561;42.666;23.392;2024-01-25T07:17:25;95540.41;;;7.93;100.00
3102;BME280;1561;42.666;23.392;2024-01-25T07:19:52;95549.44;;;7.97;100.00
3102;BME280;1561;42.666;23.392;2024-01-25T07:22:22;95538.06;;;7.90;100.00
3102;BME280;1561;42.666;23.392;2024-01-25T07:24:50;95527.34;;;7.72;100.00
3102;BME280;1561;42.666;23.392;2024-01-25T07:27:21;95580.78;;;8.24;100.00
3102;BME280;1561;42.666;23.392;2024-01-25T07:29:54;95586.63;;;8.12;100.00
3102;BME280;1561;42.666;23.392;2024-01-25T07:32:23;95598.84;;;8.19;100.00
3102;BME280;1561;42.666;23.392;2024-01-25T07:35:24;95601.88;;;7.99;100.00
3102;BME280;1561;42.666;23.392;2024-01-25T07:37:54;95518.88;;;7.59;100.00
3102;BME280;1561;42.666;23.392;2024-01-25T07:40:25;95598.84;;;8.07;100.00
3102;BME280;1561;42.666;23.392;2024-01-25T07:43:04;95545.88;;;7.74;100.00
3102;BME280;1561;42.666;23.392;2024-01-25T07:45:36;95580.19;;;8.06;100.00
3102;BME280;1561;42.666;23.392;2024-01-25T07:48:07;95599.84;;;8.17;100.00
3102;BME280;1561;42.666;23.392;2024-01-25T07:50:40;95612.72;;;8.28;100.00
3102;BME280;1561;42.666;23.392;2024-01-25T07:53:15;95507.13;;;7.71;100.00
3102;BME280;1561;42.666;23.392;2024-01-25T07:55:55;95609.69;;;8.35;100.00
3102;BME280;1561;42.666;23.392;2024-01-25T07:58:29;95606.94;;;8.38;100.00
3102;BME280;1561;42.666;23.392;2024-01-25T08:01:11;95579.47;;;9.17;100.00
3102;BME280;1561;42.666;23.392;2024-01-25T08:03:51;95616.38;;;9.95;100.00
3102;BME280;1561;42.666;23.392;2024-01-25T08:06:22;95609.25;;;9.04;100.00
3102;BME280;1561;42.666;23.392;2024-01-25T08:09:15;95521.19;;;8.51;100.00
3102;BME280;1561;42.666;23.392;2024-01-25T08:12:02;95614.03;;;8.96;100.00
3102;BME280;1561;42.666;23.392;2024-01-25T08:14:32;95609.97;;;8.81;100.00
3102;BME280;1561;42.666;23.392;2024-01-25T08:17:01;95443.34;;;7.74;100.00
3102;BME280;1561;42.666;23.392;2024-01-25T08:19:30;95620.78;;;8.59;100.00
3102;BME280;1561;42.666;23.392;2024-01-25T08:21:58;95621.41;;;8.75;100.00
3102;BME280;1561;42.666;23.392;2024-01-25T08:24:28;95617.03;;;8.65;100.00
3102;BME280;1561;42.666;23.392;2024-01-25T08:26:57;95622.00;;;8.79;100.00
3102;BME280;1561;42.666;23.392;2024-01-25T08:29:25;95617.44;;;8.71;100.00
3102;BME280;1561;42.666;23.392;2024-01-25T08:31:52;95604.91;;;8.56;100.00
3102;BME280;1561;42.666;23.392;2024-01-25T08:34:19;95628.81;;;8.78;100.00
3102;BME280;1561;42.666;23.392;2024-01-25T08:36:49;95593.56;;;8.85;100.00
3102;BME280;1561;42.666;23.392;2024-01-25T08:39:25;95613.72;;;9.00;100.00
3102;BME280;1561;42.666;23.392;2024-01-25T08:41:57;95595.31;;;8.59;100.00
3102;BME280;1561;42.666;23.392;2024-01-25T08:44:30;95620.28;;;8.92;100.00
3102;BME280;1561;42.666;23.392;2024-01-25T08:47:05;95623.50;;;9.07;100.00
3102;BME280;1561;42.666;23.392;2024-01-25T08:49:39;95531.09;;;8.31;100.00
3102;BME280;1561;42.666;23.392;2024-01-25T08:52:23;95583.41;;;8.72;100.00
3102;BME280;1561;42.666;23.392;2024-01-25T08:54:55;95625.97;;;9.08;100.00
3102;BME280;1561;42.666;23.392;2024-01-25T08:57:23;95620.47;;;9.02;100.00
3102;BME280;1561;42.666;23.392;2024-01-25T08:59:51;95604.34;;;9.01;100.00
3102;BME280;1561;42.666;23.392;2024-01-25T09:02:27;95633.97;;;9.63;100.00
3102;BME280;1561;42.666;23.392;2024-01-25T09:04:57;95622.94;;;9.63;100.00
3102;BME280;1561;42.666;23.392;2024-01-25T09:07:28;95616.03;;;9.99;100.00
3102;BME280;1561;42.666;23.392;2024-01-25T09:09:56;95615.56;;;9.94;100.00
3102;BME280;1561;42.666;23.392;2024-01-25T09:12:24;95610.78;;;9.66;100.00
3102;BME280;1561;42.666;23.392;2024-01-25T09:14:54;95618.94;;;9.71;100.00
3102;BME280;1561;42.666;23.392;2024-01-25T09:17:22;95610.56;;;10.84;97.83
3102;BME280;1561;42.666;23.392;2024-01-25T09:19:49;95596.03;;;10.84;92.29
3102;BME280;1561;42.666;23.392;2024-01-25T09:22:17;95592.09;;;10.58;93.54
3102;BME280;1561;42.666;23.392;2024-01-25T09:24:49;95605.88;;;10.45;98.58
3102;BME280;1561;42.666;23.392;2024-01-25T09:27:16;95606.84;;;10.66;98.11
3102;BME280;1561;42.666;23.392;2024-01-25T09:29:46;95592.09;;;10.13;100.00
3102;BME280;1561;42.666;23.392;2024-01-25T09:32:16;95593.94;;;10.11;100.00
3102;BME280;1561;42.666;23.392;2024-01-25T09:34:46;95591.75;;;10.17;100.00
3102;BME280;1561;42.666;23.392;2024-01-25T09:37:14;95584.47;;;10.24;100.00
3102;BME280;1561;42.666;23.392;2024-01-25T09:39:44;95570.53;;;13.62;79.90
3102;BME280;1561;42.666;23.392;2024-01-25T09:42:14;95588.84;;;13.38;70.86
3102;BME280;1561;42.666;23.392;2024-01-25T09:44:43;95587.63;;;11.37;80.33
3102;BME280;1561;42.666;23.392;2024-01-25T09:47:11;95601.69;;;10.55;91.98
3102;BME280;1561;42.666;23.392;2024-01-25T09:49:39;95600.28;;;10.40;94.72
3102;BME280;1561;42.666;23.392;2024-01-25T09:52:12;95589.06;;;10.08;97.43
3102;BME280;1561;42.666;23.392;2024-01-25T09:54:41;95580.91;;;10.03;97.55
3102;BME280;1561;42.666;23.392;2024-01-25T09:57:15;95586.53;;;10.19;98.66
3102;BME280;1561;42.666;23.392;2024-01-25T09:59:44;95575.78;;;9.68;100.00
3102;BME280;1561;42.666;23.392;2024-01-25T10:02:17;95576.19;;;10.09;100.00
3102;BME280;1561;42.666;23.392;2024-01-25T10:04:51;95581.63;;;10.05;100.00
3102;BME280;1561;42.666;23.392;2024-01-25T10:07:41;95567.06;;;9.94;100.00
3102;BME280;1561;42.666;23.392;2024-01-25T10:10:09;95543.88;;;9.97;100.00
3102;BME280;1561;42.666;23.392;2024-01-25T10:12:39;95469.25;;;9.13;100.00
3102;BME280;1561;42.666;23.392;2024-01-25T10:15:07;95563.31;;;10.11;100.00
3102;BME280;1561;42.666;23.392;2024-01-25T10:17:34;95545.53;;;10.09;100.00
3102;BME280;1561;42.666;23.392;2024-01-25T10:20:04;95538.00;;;9.73;100.00
3102;BME280;1561;42.666;23.392;2024-01-25T10:22:37;95538.91;;;10.41;100.00
3102;BME280;1561;42.666;23.392;2024-01-25T10:25:12;95522.66;;;10.64;99.08
3102;BME280;1561;42.666;23.392;2024-01-25T10:27:41;95532.19;;;12.51;88.44
3102;BME280;1561;42.666;23.392;2024-01-25T10:30:10;95533.38;;;12.68;80.56
3102;BME280;1561;42.666;23.392;2024-01-25T10:32:42;95519.56;;;12.09;82.92
3102;BME280;1561;42.666;23.392;2024-01-25T10:35:11;95522.22;;;11.13;88.24
3102;BME280;1561;42.666;23.392;2024-01-25T10:37:39;95500.81;;;11.36;92.91
3102;BME280;1561;42.666;23.392;2024-01-25T10:40:09;95520.94;;;12.13;84.07
3102;BME280;1561;42.666;23.392;2024-01-25T10:42:36;95514.19;;;12.12;86.50
3102;BME280;1561;42.666;23.392;2024-01-25T10:45:07;95509.47;;;12.37;81.28
3102;BME280;1561;42.666;23.392;2024-01-25T10:47:35;95518.31;;;11.51;86.08
3102;BME280;1561;42.666;23.392;2024-01-25T10:50:04;95501.03;;;10.68;91.90
3102;BME280;1561;42.666;23.392;2024-01-25T10:52:35;95508.25;;;10.63;95.52
3102;BME280;1561;42.666;23.392;2024-01-25T10:55:03;95489.28;;;10.88;97.39
3102;BME280;1561;42.666;23.392;2024-01-25T10:57:35;95500.41;;;11.09;92.92
3102;BME280;1561;42.666;23.392;2024-01-25T11:00:09;95496.72;;;10.80;95.62
3102;BME280;1561;42.666;23.392;2024-01-25T11:02:37;95493.75;;;11.80;90.70
3102;BME280;1561;42.666;23.392;2024-01-25T11:05:09;95488.56;;;12.62;81.53
3102;BME280;1561;42.666;23.392;2024-01-25T11:07:43;95485.00;;;12.03;81.49
3102;BME280;1561;42.666;23.392;2024-01-25T11:10:15;95472.44;;;13.39;75.09
3102;BME280;1561;42.666;23.392;2024-01-25T11:12:50;95468.88;;;11.62;79.11
3102;BME280;1561;42.666;23.392;2024-01-25T11:15:21;95482.47;;;11.20;85.90
3102;BME280;1561;42.666;23.392;2024-01-25T11:17:53;95477.91;;;10.92;90.46
3102;BME280;1561;42.666;23.392;2024-01-25T11:20:25;95481.88;;;10.63;93.99
3102;BME280;1561;42.666;23.392;2024-01-25T11:22:56;95465.63;;;10.75;94.79
3102;BME280;1561;42.666;23.392;2024-01-25T11:25:27;95458.50;;;10.78;91.55
3102;BME280;1561;42.666;23.392;2024-01-25T11:27:54;95434.31;;;10.40;92.40
3102;BME280;1561;42.666;23.392;2024-01-25T11:30:25;95461.91;;;10.68;92.67
3102;BME280;1561;42.666;23.392;2024-01-25T11:32:52;95479.69;;;10.36;95.85
3102;BME280;1561;42.666;23.392;2024-01-25T11:35:20;95452.31;;;10.27;95.98
3102;BME280;1561;42.666;23.392;2024-01-25T11:37:48;95459.06;;;9.83;98.75
3102;BME280;1561;42.666;23.392;2024-01-25T11:40:17;95460.41;;;9.76;99.90
3102;BME280;1561;42.666;23.392;2024-01-25T11:42:48;95458.81;;;9.75;100.00
3102;BME280;1561;42.666;23.392;2024-01-25T11:45:16;95468.88;;;9.65;100.00
3102;BME280;1561;42.666;23.392;2024-01-25T11:47:45;95465.72;;;9.51;100.00
3102;BME280;1561;42.666;23.392;2024-01-25T11:50:13;95477.16;;;9.45;100.00
3102;BME280;1561;42.666;23.392;2024-01-25T11:52:41;95480.22;;;9.61;100.00
3102;BME280;1561;42.666;23.392;2024-01-25T11:55:09;95477.63;;;9.50;100.00
3102;BME280;1561;42.666;23.392;2024-01-25T11:57:39;95463.06;;;9.52;100.00
3102;BME280;1561;42.666;23.392;2024-01-25T12:00:08;95458.44;;;9.57;100.00
3102;BME280;1561;42.666;23.392;2024-01-25T12:02:36;95455.63;;;9.60;100.00
3102;BME280;1561;42.666;23.392;2024-01-25T12:05:06;95452.97;;;9.62;100.00
3102;BME280;1561;42.666;23.392;2024-01-25T12:07:34;95347.06;;;9.12;99.64
3102;BME280;1561;42.666;23.392;2024-01-25T12:10:03;95464.69;;;9.64;98.21
3102;BME280;1561;42.666;23.392;2024-01-25T12:12:35;95449.00;;;9.58;97.92
3102;BME280;1561;42.666;23.392;2024-01-25T12:15:05;95448.25;;;9.68;97.67
3102;BME280;1561;42.666;23.392;2024-01-25T12:17:34;95436.50;;;9.55;98.42
3102;BME280;1561;42.666;23.392;2024-01-25T12:20:09;95438.53;;;9.39;100.00
3102;BME280;1561;42.666;23.392;2024-01-25T12:22:38;95430.25;;;9.59;99.76
3102;BME280;1561;42.666;23.392;2024-01-25T12:25:07;95299.22;;;8.81;99.01
3102;BME280;1561;42.666;23.392;2024-01-25T12:27:35;95420.53;;;9.64;99.02
3102;BME280;1561;42.666;23.392;2024-01-25T12:30:04;95418.53;;;10.35;95.26
3102;BME280;1561;42.666;23.392;2024-01-25T12:32:32;95399.44;;;10.61;90.31
3102;BME280;1561;42.666;23.392;2024-01-25T12:35:00;95406.06;;;10.52;87.98
3102;BME280;1561;42.666;23.392;2024-01-25T12:37:29;95386.72;;;10.39;89.98
3102;BME280;1561;42.666;23.392;2024-01-25T12:39:56;95389.63;;;10.23;91.92
3102;BME280;1561;42.666;23.392;2024-01-25T12:42:23;95396.34;;;10.24;90.72
3102;BME280;1561;42.666;23.392;2024-01-25T12:44:53;95371.16;;;10.31;87.94
3102;BME280;1561;42.666;23.392;2024-01-25T12:47:21;95383.47;;;10.79;87.45
3102;BME280;1561;42.666;23.392;2024-01-25T12:49:48;95364.50;;;10.93;84.40
3102;BME280;1561;42.666;23.392;2024-01-25T12:52:15;95393.63;;;11.01;82.78
3102;BME280;1561;42.666;23.392;2024-01-25T12:54:44;95371.03;;;11.17;80.62
3102;BME280;1561;42.666;23.392;2024-01-25T12:57:12;95359.69;;;11.31;79.49
3102;BME280;1561;42.666;23.392;2024-01-25T12:59:39;95347.03;;;11.29;78.65
3102;BME280;1561;42.666;23.392;2024-01-25T13:02:09;95361.66;;;10.75;82.32
3102;BME280;1561;42.666;23.392;2024-01-25T13:04:36;95351.91;;;10.80;82.72
3102;BME280;1561;42.666;23.392;2024-01-25T13:07:03;95327.22;;;10.59;81.45
3102;BME280;1561;42.666;23.392;2024-01-25T13:09:31;95338.72;;;10.96;80.72
3102;BME280;1561;42.666;23.392;2024-01-25T13:12:03;95338.09;;;11.03;79.76
3102;BME280;1561;42.666;23.392;2024-01-25T13:14:32;95331.41;;;10.91;79.80
3102;BME280;1561;42.666;23.392;2024-01-25T13:16:59;95353.97;;;10.75;80.05
3102;BME280;1561;42.666;23.392;2024-01-25T13:19:26;95368.81;;;10.50;80.97
3102;BME280;1561;42.666;23.392;2024-01-25T13:21:53;95357.47;;;10.43;82.88
3102;BME280;1561;42.666;23.392;2024-01-25T13:24:20;95364.91;;;10.35;82.72
3102;BME280;1561;42.666;23.392;2024-01-25T13:26:48;95354.34;;;10.28;84.10
3102;BME280;1561;42.666;23.392;2024-01-25T13:29:17;95347.84;;;9.80;86.02